Aeroporto :
LOGIN :

Iscrizione | Disclaimer

   EN    FR    IT 

 










Sommario :    VFR   VFR Marginale   IFR   IFR Intensivo   IFR Molto Intensivo
Visibilità : 
Base nubi : 
>= 8 km
>= 3000ft
5 / 8 km
1000 / 3000 ft
1500m / 5 km
500 / 1000 ft
800 / 1500m
200 / 500 ft
< 800m
< 200 ft
Simboli :   Temporali  Nebbia  Neve Forte  Precipitazioni Forti  Vento > 20 kt
SIGMETs :   Varie  Temporali  Ghiacco  Turbolenza  Onda orograficha  Ceneri Vulcaniche






- Altitudine del aeroporto : 100 ft


EBDT - Schaffen

ULTIMO METAR :
  • 291125Z AUTO 25011KT 9999 FEW024/// SCT035/// BKN070/// 06/01 Q1009 BLU

METARs OBSOLETI :
  • 291055Z AUTO 26012KT 9999 FEW024/// SCT036/// BKN060/// 06/01 Q1009 BLU
  • 291025Z AUTO 26014KT 9999 FEW023/// SCT080/// BKN100/// 06/01 Q1008 BLU
  • 290955Z AUTO 26014KT 9999 FEW020/// BKN100/// OVC120/// 06/01 Q1008 BLU
  • 290925Z AUTO 25011KT 9999 FEW045/// BKN100/// OVC120/// 05/01 Q1008 BLU
  • 290855Z AUTO 24010KT 9999 FEW018/// BKN100/// OVC130/// 05/01 Q1007 BLU

TAF TAF EBDT
Valido dal 29 a 10 ore il 29 a 19 ore UTC


290841Z 2910/2919 25010G21KT 9999 SCT025
BECMG 2910/2912 27014G26KT FEW030
TEMPO 2911/2917 -SHRA SCT030
PROB30
TEMPO 2912/2914 27014G30KT 8000 -SHRA SCT030



MetMap, La meteo Aeronautica in un colpo d'occhio ! - Copyright ORBIFLY Dicembre 2007 - Disclaimer

ORBIFLY MET'MAP TEAM :

Programmazione e sviluppo : Alexandra Zaïnal
Concezione : Baudouin d'Aumeries
Aiuto per la programmazione : Marc-Olivier Méhu
Supporto tecnico e logistico : Manuel Goepfert
Aiuto per la traduzione : Arnaldo La Scala

Contatto : metmap@orbifly.com




FONTI E CREDITI :

   NOAA